• Join FlightAware (Why Join?)
  • Login
  • US Flag 
06:47PM EDT


 

Airport Tracker/Info


-or-


 

Live Flight TrackerFlight Track Log ✈ RPA3321 ✈ 14-May-2013 ✈ KALB - KDCA

Flight Track Log - Related Links

Times and Time Zones

All times are in EDT time to prevent confusion due to time zone crossing. See the RPA3321 flight status page for this flight to view local times or setup timezone preferences in your user account.

Time Position Orientation Groundspeed Altitude Reporting Facility
EDT Latitude Longitude Course Direction KTS MPH feet Rate Location/Type
05:32AM 42.7653 -73.8061 119° Southeast 140 161 1,600  Level Boston Center
05:33AM 42.8047 -73.8183 347° North 190 219 3,500 2,400 Climbing Boston Center
05:34AM 42.5153 -74.0095 171° South  Level Estimated
05:34AM 42.8494 -73.9069 305° West 264 304 6,600  Level Boston Center
05:35AM 42.4373 -74.0783 180° South  Level Estimated
05:35AM 42.8961 -73.9931 307° West 264 304 10,000  Level Boston Center
05:36AM 42.3593 -74.1470 172° South  Level Estimated
05:36AM 42.9239 -74.0931 291° West 270 311 11,900  Level Boston Center
05:37AM 42.3139 -74.0371 119° Southeast  Level FlightAware Approximate
05:37AM 42.9036 -74.2003 256° West 286 329 14,800  Level Boston Center
05:38AM 42.8222 -74.2122 186° South 251 289 16,900 2,100 Climbing Boston Center
05:39AM 42.7250 -74.1528 156° South 305 351 19,000 1,920 Climbing Boston Center
05:40AM 42.6281 -74.1022 159° South 353 406 20,800 1,680 Climbing Boston Center
05:41AM 42.5392 -74.0492 156° South 377 434 22,400 1,320 Climbing Boston Center
05:42AM 42.4336 -73.9872 157° South 395 455 23,500 1,020 Climbing Boston Center
05:43AM 42.3200 -73.9200 156° South 425 489 24,500 900 Climbing Boston Center
05:44AM 42.2000 -73.8497 157° South 454 522 25,400 660 Climbing Boston Center
05:45AM 42.0669 -73.8217 171° South 461 531 25,900 180 Climbing Boston Center
05:47AM 41.8292 -73.9333 199° South 469 540 26,000  Climbing New York Center
05:48AM 41.7172 -74.0003 204° Southwest 464 534 26,000  Level New York Center
05:49AM 41.6247 -74.1039 220° Southwest 448 516 26,000  Level New York Center
05:50AM 41.5322 -74.2047 219° Southwest 439 505 26,000  Level New York Center
05:51AM 41.4417 -74.3106 221° Southwest 439 505 26,000  Level New York Center
05:52AM 41.3492 -74.4108 219° Southwest 439 505 26,000  Level New York Center
05:53AM 41.2522 -74.5103 218° Southwest 439 505 26,000  Level New York Center
05:54AM 41.1597 -74.6072 218° Southwest 439 505 26,000  Level New York Center
05:55AM 41.0686 -74.7122 221° Southwest 439 505 26,000  Level New York Center
05:56AM 40.9758 -74.8139 220° Southwest 434 499 26,000  Level New York Center
05:57AM 40.8825 -74.9153 219° Southwest 434 499 26,000  Level New York Center
05:58AM 40.7917 -75.0114 219° Southwest 434 499 26,000  Level New York Center
05:59AM 40.7006 -75.1150 221° Southwest 434 499 26,000  Level New York Center
06:00AM 40.6072 -75.2131 219° Southwest 439 505 26,000  Level New York Center
06:01AM 40.5117 -75.3133 219° Southwest 439 505 26,000  Level New York Center
06:02AM 40.4181 -75.4136 219° Southwest 439 505 26,000  Level New York Center
06:03AM 40.3244 -75.5161 220° Southwest 439 505 26,000  Level New York Center
06:04AM 40.2286 -75.6156 218° Southwest 439 505 26,000  Level New York Center
06:05AM 40.1350 -75.7150 219° Southwest 439 505 26,000  Level New York Center
06:06AM 40.0411 -75.8142 219° Southwest 439 505 26,000 -1,080 Level New York Center
06:07AM 39.9472 -75.9128 219° Southwest 439 505 23,900 -2,220 Descending New York Center
06:09AM 39.7500 -76.1167 219° Southwest 384 442 19,100 -2,160 Descending Potomac TRACON
06:11AM 39.6000 -76.2667 218° Southwest 346 398 15,300 -1,860 Descending Potomac TRACON
06:12AM 39.5333 -76.3333 218° Southwest 326 375 13,900 -1,680 Descending Potomac TRACON
06:13AM 39.4500 -76.4167 218° Southwest 315 362 12,000 -1,020 Descending Potomac TRACON
06:14AM 39.4000 -76.4667 218° Southwest 318 366 11,900 -60 Descending Potomac TRACON
06:15AM 39.3333 -76.5333 218° Southwest 320 368 11,900 -240 Level Potomac TRACON
06:16AM 39.2500 -76.6000 212° Southwest 320 368 11,500 -960 Descending Potomac TRACON
06:17AM 39.1833 -76.6500 210° Southwest 301 346 10,100 -840 Descending Potomac TRACON
06:18AM 39.1167 -76.7167 218° Southwest 283 326 9,900 -120 Descending Potomac TRACON
06:18AM 39.0833 -76.7667 229° Southwest 284 327 9,900 -1,140 Level Potomac TRACON
06:19AM 39.0333 -76.8333 226° Southwest 275 316 8,100 -1,920 Descending Potomac TRACON
06:20AM 38.9667 -76.9000 218° Southwest 271 312 6,100 -1,140 Descending Potomac TRACON
06:21AM 38.9000 -76.9500 210° Southwest 279 321 5,900 -1,020 Descending Potomac TRACON
06:22AM 38.8333 -76.9500 180° South 281 323 4,100 -1,500 Descending Potomac TRACON
06:23AM 38.7667 -76.9500 180° South 259 298 3,200 -960 Descending Potomac TRACON
06:24AM 38.7500 -77.0000 247° West 196 226 2,300 -1,020 Descending Potomac TRACON
06:25AM 38.7833 -77.0333 322° Northwest 160 184 1,100 -960 Descending Potomac TRACON
06:26AM 38.8333 -77.0333 360° North 120 138 400 -720 Descending Potomac TRACON
06:28AM 38.8500 -77.0333 284° West  Level FlightAware Approximate
06:35AM 38.8519 -77.0377 284° West  Level Estimated